sensor_id;sensor_type;location;lat;lon;timestamp;temperature;humidity
25214;DHT22;13160;51.834;4.706;2022-08-21T00:01:45;18.20;99.90
25214;DHT22;13160;51.834;4.706;2022-08-21T00:04:13;18.20;99.90
25214;DHT22;13160;51.834;4.706;2022-08-21T00:06:48;18.10;99.90
25214;DHT22;13160;51.834;4.706;2022-08-21T00:09:19;18.10;99.90
25214;DHT22;13160;51.834;4.706;2022-08-21T00:11:48;18.10;99.90
25214;DHT22;13160;51.834;4.706;2022-08-21T00:14:17;18.10;99.90
25214;DHT22;13160;51.834;4.706;2022-08-21T00:16:45;18.10;99.90
25214;DHT22;13160;51.834;4.706;2022-08-21T00:19:13;18.10;99.90
25214;DHT22;13160;51.834;4.706;2022-08-21T00:21:42;18.10;99.90
25214;DHT22;13160;51.834;4.706;2022-08-21T00:24:10;18.10;99.90
25214;DHT22;13160;51.834;4.706;2022-08-21T00:26:40;18.10;99.90
25214;DHT22;13160;51.834;4.706;2022-08-21T00:29:10;18.10;99.90
25214;DHT22;13160;51.834;4.706;2022-08-21T00:31:38;18.10;99.90
25214;DHT22;13160;51.834;4.706;2022-08-21T00:34:07;18.10;99.90
25214;DHT22;13160;51.834;4.706;2022-08-21T00:36:36;18.10;99.90
25214;DHT22;13160;51.834;4.706;2022-08-21T00:39:05;18.10;99.90
25214;DHT22;13160;51.834;4.706;2022-08-21T00:41:36;18.10;99.90
25214;DHT22;13160;51.834;4.706;2022-08-21T00:44:10;18.10;99.90
25214;DHT22;13160;51.834;4.706;2022-08-21T00:46:41;18.10;99.90
25214;DHT22;13160;51.834;4.706;2022-08-21T00:49:11;18.10;99.90
25214;DHT22;13160;51.834;4.706;2022-08-21T00:51:43;18.10;99.90
25214;DHT22;13160;51.834;4.706;2022-08-21T00:54:17;18.10;99.90
25214;DHT22;13160;51.834;4.706;2022-08-21T00:56:52;18.00;99.90
25214;DHT22;13160;51.834;4.706;2022-08-21T00:59:28;18.10;99.90
25214;DHT22;13160;51.834;4.706;2022-08-21T01:02:00;18.00;99.90
25214;DHT22;13160;51.834;4.706;2022-08-21T01:04:28;18.00;99.90
25214;DHT22;13160;51.834;4.706;2022-08-21T01:06:57;18.00;99.90
25214;DHT22;13160;51.834;4.706;2022-08-21T01:09:25;18.00;99.90
25214;DHT22;13160;51.834;4.706;2022-08-21T01:11:54;17.90;99.90
25214;DHT22;13160;51.834;4.706;2022-08-21T01:14:23;18.00;99.90
25214;DHT22;13160;51.834;4.706;2022-08-21T01:16:52;17.90;99.90
25214;DHT22;13160;51.834;4.706;2022-08-21T01:19:22;17.90;99.90
25214;DHT22;13160;51.834;4.706;2022-08-21T01:21:53;17.90;99.90
25214;DHT22;13160;51.834;4.706;2022-08-21T01:24:22;17.90;99.90
25214;DHT22;13160;51.834;4.706;2022-08-21T01:26:51;17.90;99.90
25214;DHT22;13160;51.834;4.706;2022-08-21T01:29:29;17.90;99.90
25214;DHT22;13160;51.834;4.706;2022-08-21T01:32:05;17.90;99.90
25214;DHT22;13160;51.834;4.706;2022-08-21T01:34:36;17.80;99.90
25214;DHT22;13160;51.834;4.706;2022-08-21T01:37:08;17.80;99.90
25214;DHT22;13160;51.834;4.706;2022-08-21T01:39:36;17.80;99.90
25214;DHT22;13160;51.834;4.706;2022-08-21T01:42:06;17.80;99.90
25214;DHT22;13160;51.834;4.706;2022-08-21T01:44:35;17.80;99.90
25214;DHT22;13160;51.834;4.706;2022-08-21T01:47:06;17.80;99.90
25214;DHT22;13160;51.834;4.706;2022-08-21T01:49:37;17.80;99.90
25214;DHT22;13160;51.834;4.706;2022-08-21T01:52:08;17.80;99.90
25214;DHT22;13160;51.834;4.706;2022-08-21T01:54:37;17.80;99.90
25214;DHT22;13160;51.834;4.706;2022-08-21T01:57:06;17.80;99.90
25214;DHT22;13160;51.834;4.706;2022-08-21T01:59:35;17.80;99.90
25214;DHT22;13160;51.834;4.706;2022-08-21T02:02:04;17.70;99.90
25214;DHT22;13160;51.834;4.706;2022-08-21T02:04:33;17.70;99.90
25214;DHT22;13160;51.834;4.706;2022-08-21T02:07:02;17.70;99.90
25214;DHT22;13160;51.834;4.706;2022-08-21T02:09:35;17.70;99.90
25214;DHT22;13160;51.834;4.706;2022-08-21T02:12:06;17.70;99.90
25214;DHT22;13160;51.834;4.706;2022-08-21T02:14:34;17.70;99.90
25214;DHT22;13160;51.834;4.706;2022-08-21T02:17:03;17.70;99.90
25214;DHT22;13160;51.834;4.706;2022-08-21T02:19:36;17.70;99.90
25214;DHT22;13160;51.834;4.706;2022-08-21T02:22:07;17.70;99.90
25214;DHT22;13160;51.834;4.706;2022-08-21T02:24:38;17.70;99.90
25214;DHT22;13160;51.834;4.706;2022-08-21T02:27:20;17.60;99.90
25214;DHT22;13160;51.834;4.706;2022-08-21T02:29:52;17.60;99.90
25214;DHT22;13160;51.834;4.706;2022-08-21T02:32:21;17.60;99.90
25214;DHT22;13160;51.834;4.706;2022-08-21T02:34:49;17.60;99.90
25214;DHT22;13160;51.834;4.706;2022-08-21T02:37:17;17.50;99.90
25214;DHT22;13160;51.834;4.706;2022-08-21T02:39:47;17.60;99.90
25214;DHT22;13160;51.834;4.706;2022-08-21T02:42:15;17.60;99.90
25214;DHT22;13160;51.834;4.706;2022-08-21T02:44:44;17.50;99.90
25214;DHT22;13160;51.834;4.706;2022-08-21T02:47:13;17.50;99.90
25214;DHT22;13160;51.834;4.706;2022-08-21T02:49:42;17.50;99.90
25214;DHT22;13160;51.834;4.706;2022-08-21T02:52:10;17.50;99.90
25214;DHT22;13160;51.834;4.706;2022-08-21T02:54:38;17.50;99.90
25214;DHT22;13160;51.834;4.706;2022-08-21T02:57:08;17.50;99.90
25214;DHT22;13160;51.834;4.706;2022-08-21T02:59:36;17.40;99.90
25214;DHT22;13160;51.834;4.706;2022-08-21T03:02:05;17.40;99.90
25214;DHT22;13160;51.834;4.706;2022-08-21T03:04:33;17.40;99.90
25214;DHT22;13160;51.834;4.706;2022-08-21T03:07:01;17.40;99.90
25214;DHT22;13160;51.834;4.706;2022-08-21T03:09:36;17.40;99.90
25214;DHT22;13160;51.834;4.706;2022-08-21T03:12:12;17.40;99.90
25214;DHT22;13160;51.834;4.706;2022-08-21T03:14:40;17.40;99.90
25214;DHT22;13160;51.834;4.706;2022-08-21T03:17:09;17.30;99.90
25214;DHT22;13160;51.834;4.706;2022-08-21T03:19:37;17.30;99.90
25214;DHT22;13160;51.834;4.706;2022-08-21T03:22:06;17.30;99.90
25214;DHT22;13160;51.834;4.706;2022-08-21T03:24:34;17.30;99.90
25214;DHT22;13160;51.834;4.706;2022-08-21T03:27:08;17.30;99.90
25214;DHT22;13160;51.834;4.706;2022-08-21T03:29:38;17.30;99.90
25214;DHT22;13160;51.834;4.706;2022-08-21T03:32:06;17.30;99.90
25214;DHT22;13160;51.834;4.706;2022-08-21T03:34:36;17.30;99.90
25214;DHT22;13160;51.834;4.706;2022-08-21T03:37:06;17.30;99.90
25214;DHT22;13160;51.834;4.706;2022-08-21T03:39:36;17.30;99.90
25214;DHT22;13160;51.834;4.706;2022-08-21T03:42:05;17.30;99.90
25214;DHT22;13160;51.834;4.706;2022-08-21T03:44:33;17.30;99.90
25214;DHT22;13160;51.834;4.706;2022-08-21T03:47:04;17.30;99.90
25214;DHT22;13160;51.834;4.706;2022-08-21T03:49:32;17.20;99.90
25214;DHT22;13160;51.834;4.706;2022-08-21T03:52:01;17.20;99.90
25214;DHT22;13160;51.834;4.706;2022-08-21T03:54:30;17.20;99.90
25214;DHT22;13160;51.834;4.706;2022-08-21T03:56:59;17.20;99.90
25214;DHT22;13160;51.834;4.706;2022-08-21T03:59:27;17.20;99.90
25214;DHT22;13160;51.834;4.706;2022-08-21T04:01:58;17.20;99.90
25214;DHT22;13160;51.834;4.706;2022-08-21T04:04:30;17.20;99.90
25214;DHT22;13160;51.834;4.706;2022-08-21T04:06:59;17.10;99.90
25214;DHT22;13160;51.834;4.706;2022-08-21T04:09:28;17.20;99.90
25214;DHT22;13160;51.834;4.706;2022-08-21T04:11:57;17.20;99.90
25214;DHT22;13160;51.834;4.706;2022-08-21T04:14:26;17.20;99.90
25214;DHT22;13160;51.834;4.706;2022-08-21T04:16:54;17.10;99.90
25214;DHT22;13160;51.834;4.706;2022-08-21T04:19:22;17.10;99.90
25214;DHT22;13160;51.834;4.706;2022-08-21T04:21:52;17.10;99.90
25214;DHT22;13160;51.834;4.706;2022-08-21T04:24:20;17.10;99.90
25214;DHT22;13160;51.834;4.706;2022-08-21T04:26:49;17.10;99.90
25214;DHT22;13160;51.834;4.706;2022-08-21T04:29:17;17.10;99.90
25214;DHT22;13160;51.834;4.706;2022-08-21T04:31:46;17.10;99.90
25214;DHT22;13160;51.834;4.706;2022-08-21T04:34:14;17.10;99.90
25214;DHT22;13160;51.834;4.706;2022-08-21T04:36:43;17.20;99.90
25214;DHT22;13160;51.834;4.706;2022-08-21T04:39:12;17.20;99.90
25214;DHT22;13160;51.834;4.706;2022-08-21T04:41:41;17.20;99.90
25214;DHT22;13160;51.834;4.706;2022-08-21T04:44:09;17.10;99.90
25214;DHT22;13160;51.834;4.706;2022-08-21T04:46:38;17.20;99.90
25214;DHT22;13160;51.834;4.706;2022-08-21T04:49:06;17.20;99.90
25214;DHT22;13160;51.834;4.706;2022-08-21T04:51:36;17.20;99.90
25214;DHT22;13160;51.834;4.706;2022-08-21T04:54:08;17.20;99.90
25214;DHT22;13160;51.834;4.706;2022-08-21T04:56:42;17.20;99.90
25214;DHT22;13160;51.834;4.706;2022-08-21T04:59:17;17.20;99.90
25214;DHT22;13160;51.834;4.706;2022-08-21T05:01:47;17.30;99.90
25214;DHT22;13160;51.834;4.706;2022-08-21T05:04:21;17.20;99.90
25214;DHT22;13160;51.834;4.706;2022-08-21T05:06:53;17.20;99.90
25214;DHT22;13160;51.834;4.706;2022-08-21T05:09:24;17.30;99.90
25214;DHT22;13160;51.834;4.706;2022-08-21T05:11:54;17.30;99.90
25214;DHT22;13160;51.834;4.706;2022-08-21T05:14:23;17.30;99.90
25214;DHT22;13160;51.834;4.706;2022-08-21T05:16:51;17.30;99.90
25214;DHT22;13160;51.834;4.706;2022-08-21T05:19:19;17.30;99.90
25214;DHT22;13160;51.834;4.706;2022-08-21T05:21:50;17.30;99.90
25214;DHT22;13160;51.834;4.706;2022-08-21T05:24:19;17.30;99.90
25214;DHT22;13160;51.834;4.706;2022-08-21T05:26:47;17.40;99.90
25214;DHT22;13160;51.834;4.706;2022-08-21T05:29:17;17.40;99.90
25214;DHT22;13160;51.834;4.706;2022-08-21T05:31:46;17.30;99.90
25214;DHT22;13160;51.834;4.706;2022-08-21T05:34:18;17.40;99.90
25214;DHT22;13160;51.834;4.706;2022-08-21T05:36:48;17.40;99.90
25214;DHT22;13160;51.834;4.706;2022-08-21T05:39:16;17.40;99.90
25214;DHT22;13160;51.834;4.706;2022-08-21T05:41:45;17.50;99.90
25214;DHT22;13160;51.834;4.706;2022-08-21T05:44:14;17.50;99.90
25214;DHT22;13160;51.834;4.706;2022-08-21T05:46:44;17.50;99.90
25214;DHT22;13160;51.834;4.706;2022-08-21T05:49:15;17.50;99.90
25214;DHT22;13160;51.834;4.706;2022-08-21T05:51:46;17.50;99.90
25214;DHT22;13160;51.834;4.706;2022-08-21T05:54:17;17.60;99.90
25214;DHT22;13160;51.834;4.706;2022-08-21T05:56:49;17.60;99.90
25214;DHT22;13160;51.834;4.706;2022-08-21T05:59:17;17.60;99.90
25214;DHT22;13160;51.834;4.706;2022-08-21T06:01:47;17.60;99.90
25214;DHT22;13160;51.834;4.706;2022-08-21T06:04:15;17.70;99.90
25214;DHT22;13160;51.834;4.706;2022-08-21T06:06:46;17.70;99.90
25214;DHT22;13160;51.834;4.706;2022-08-21T06:09:15;17.70;99.90
25214;DHT22;13160;51.834;4.706;2022-08-21T06:11:45;17.70;99.90
25214;DHT22;13160;51.834;4.706;2022-08-21T06:14:15;17.70;99.90
25214;DHT22;13160;51.834;4.706;2022-08-21T06:16:43;17.80;99.90
25214;DHT22;13160;51.834;4.706;2022-08-21T06:19:13;17.80;99.90
25214;DHT22;13160;51.834;4.706;2022-08-21T06:21:41;17.80;99.90
25214;DHT22;13160;51.834;4.706;2022-08-21T06:24:10;17.90;99.90
25214;DHT22;13160;51.834;4.706;2022-08-21T06:26:40;17.90;99.90
25214;DHT22;13160;51.834;4.706;2022-08-21T06:29:12;17.90;99.90
25214;DHT22;13160;51.834;4.706;2022-08-21T06:31:43;18.00;99.90
25214;DHT22;13160;51.834;4.706;2022-08-21T06:34:15;18.00;99.90
25214;DHT22;13160;51.834;4.706;2022-08-21T06:36:44;18.00;99.90
25214;DHT22;13160;51.834;4.706;2022-08-21T06:39:12;18.00;99.90
25214;DHT22;13160;51.834;4.706;2022-08-21T06:41:56;18.10;99.90
25214;DHT22;13160;51.834;4.706;2022-08-21T06:44:25;18.10;99.90
25214;DHT22;13160;51.834;4.706;2022-08-21T06:46:53;18.20;99.90
25214;DHT22;13160;51.834;4.706;2022-08-21T06:49:23;18.20;99.90
25214;DHT22;13160;51.834;4.706;2022-08-21T06:51:51;18.20;99.90
25214;DHT22;13160;51.834;4.706;2022-08-21T06:54:19;18.30;99.90
25214;DHT22;13160;51.834;4.706;2022-08-21T06:56:48;18.30;99.90
25214;DHT22;13160;51.834;4.706;2022-08-21T06:59:16;18.40;99.90
25214;DHT22;13160;51.834;4.706;2022-08-21T07:01:45;18.40;99.90
25214;DHT22;13160;51.834;4.706;2022-08-21T07:04:13;18.50;99.90
25214;DHT22;13160;51.834;4.706;2022-08-21T07:06:43;18.80;99.90
25214;DHT22;13160;51.834;4.706;2022-08-21T07:09:11;19.20;99.90
25214;DHT22;13160;51.834;4.706;2022-08-21T07:11:40;19.80;99.90
25214;DHT22;13160;51.834;4.706;2022-08-21T07:14:13;20.30;99.90
25214;DHT22;13160;51.834;4.706;2022-08-21T07:16:46;20.90;99.90
25214;DHT22;13160;51.834;4.706;2022-08-21T07:19:15;21.60;99.90
25214;DHT22;13160;51.834;4.706;2022-08-21T07:21:44;22.20;99.90
25214;DHT22;13160;51.834;4.706;2022-08-21T07:24:13;22.60;99.90
25214;DHT22;13160;51.834;4.706;2022-08-21T07:26:42;22.90;99.90
25214;DHT22;13160;51.834;4.706;2022-08-21T07:29:10;23.30;99.90
25214;DHT22;13160;51.834;4.706;2022-08-21T07:31:38;23.80;99.90
25214;DHT22;13160;51.834;4.706;2022-08-21T07:34:06;24.20;99.10
25214;DHT22;13160;51.834;4.706;2022-08-21T07:36:35;24.60;98.50
25214;DHT22;13160;51.834;4.706;2022-08-21T07:39:06;25.00;97.40
25214;DHT22;13160;51.834;4.706;2022-08-21T07:41:34;25.10;96.70
25214;DHT22;13160;51.834;4.706;2022-08-21T07:44:03;25.20;96.10
25214;DHT22;13160;51.834;4.706;2022-08-21T07:46:32;25.40;95.90
25214;DHT22;13160;51.834;4.706;2022-08-21T07:49:00;25.40;95.60
25214;DHT22;13160;51.834;4.706;2022-08-21T07:51:29;25.60;95.30
25214;DHT22;13160;51.834;4.706;2022-08-21T07:53:58;25.80;94.80
25214;DHT22;13160;51.834;4.706;2022-08-21T07:56:29;25.90;94.30
25214;DHT22;13160;51.834;4.706;2022-08-21T07:58:58;25.90;94.10
25214;DHT22;13160;51.834;4.706;2022-08-21T08:01:26;26.10;94.10
25214;DHT22;13160;51.834;4.706;2022-08-21T08:03:55;26.30;93.70
25214;DHT22;13160;51.834;4.706;2022-08-21T08:06:23;26.40;93.30
25214;DHT22;13160;51.834;4.706;2022-08-21T08:08:52;26.50;93.10
25214;DHT22;13160;51.834;4.706;2022-08-21T08:11:21;26.60;93.00
25214;DHT22;13160;51.834;4.706;2022-08-21T08:13:52;26.60;92.70
25214;DHT22;13160;51.834;4.706;2022-08-21T08:16:20;26.60;92.30
25214;DHT22;13160;51.834;4.706;2022-08-21T08:18:49;26.60;92.30
25214;DHT22;13160;51.834;4.706;2022-08-21T08:21:18;26.70;92.20
25214;DHT22;13160;51.834;4.706;2022-08-21T08:23:47;26.60;92.20
25214;DHT22;13160;51.834;4.706;2022-08-21T08:26:16;26.70;91.90
25214;DHT22;13160;51.834;4.706;2022-08-21T08:28:47;26.70;91.70
25214;DHT22;13160;51.834;4.706;2022-08-21T08:31:18;26.60;91.70
25214;DHT22;13160;51.834;4.706;2022-08-21T08:33:46;26.50;91.60
25214;DHT22;13160;51.834;4.706;2022-08-21T08:36:15;26.50;92.30
25214;DHT22;13160;51.834;4.706;2022-08-21T08:38:46;26.50;92.00
25214;DHT22;13160;51.834;4.706;2022-08-21T08:41:17;26.60;92.00
25214;DHT22;13160;51.834;4.706;2022-08-21T08:43:53;26.60;91.60
25214;DHT22;13160;51.834;4.706;2022-08-21T08:46:30;26.60;91.50
25214;DHT22;13160;51.834;4.706;2022-08-21T08:49:03;26.60;91.30
25214;DHT22;13160;51.834;4.706;2022-08-21T08:51:43;26.60;91.00
25214;DHT22;13160;51.834;4.706;2022-08-21T08:54:24;26.50;91.20
25214;DHT22;13160;51.834;4.706;2022-08-21T08:56:59;26.40;91.10
25214;DHT22;13160;51.834;4.706;2022-08-21T08:59:36;26.30;91.00
25214;DHT22;13160;51.834;4.706;2022-08-21T09:02:12;26.10;91.00
25214;DHT22;13160;51.834;4.706;2022-08-21T09:04:42;26.00;91.00
25214;DHT22;13160;51.834;4.706;2022-08-21T09:07:18;25.70;91.40
25214;DHT22;13160;51.834;4.706;2022-08-21T09:10:10;25.60;91.50
25214;DHT22;13160;51.834;4.706;2022-08-21T09:12:51;25.40;91.50
25214;DHT22;13160;51.834;4.706;2022-08-21T09:15:29;25.20;91.60
25214;DHT22;13160;51.834;4.706;2022-08-21T09:18:21;25.10;91.80
25214;DHT22;13160;51.834;4.706;2022-08-21T09:21:07;25.00;91.70
25214;DHT22;13160;51.834;4.706;2022-08-21T09:23:46;24.90;91.80
25214;DHT22;13160;51.834;4.706;2022-08-21T09:26:20;24.80;91.90
25214;DHT22;13160;51.834;4.706;2022-08-21T09:28:53;24.80;92.00
25214;DHT22;13160;51.834;4.706;2022-08-21T09:31:26;24.80;92.20
25214;DHT22;13160;51.834;4.706;2022-08-21T09:34:02;24.80;92.20
25214;DHT22;13160;51.834;4.706;2022-08-21T09:36:37;24.90;92.20
25214;DHT22;13160;51.834;4.706;2022-08-21T09:39:08;24.80;92.20
25214;DHT22;13160;51.834;4.706;2022-08-21T09:41:39;24.80;91.90
25214;DHT22;13160;51.834;4.706;2022-08-21T09:44:08;24.80;91.60
25214;DHT22;13160;51.834;4.706;2022-08-21T09:46:36;24.90;91.40
25214;DHT22;13160;51.834;4.706;2022-08-21T09:49:06;24.90;91.20
25214;DHT22;13160;51.834;4.706;2022-08-21T09:51:51;24.90;91.20
25214;DHT22;13160;51.834;4.706;2022-08-21T09:54:26;25.00;91.20
25214;DHT22;13160;51.834;4.706;2022-08-21T09:56:58;25.10;91.10
25214;DHT22;13160;51.834;4.706;2022-08-21T09:59:46;25.10;91.00
25214;DHT22;13160;51.834;4.706;2022-08-21T10:02:24;25.20;91.00
25214;DHT22;13160;51.834;4.706;2022-08-21T10:04:57;25.40;90.90
25214;DHT22;13160;51.834;4.706;2022-08-21T10:07:27;25.40;90.80
25214;DHT22;13160;51.834;4.706;2022-08-21T10:10:03;25.50;90.20
25214;DHT22;13160;51.834;4.706;2022-08-21T10:12:41;25.60;89.60
25214;DHT22;13160;51.834;4.706;2022-08-21T10:15:20;25.70;89.90
25214;DHT22;13160;51.834;4.706;2022-08-21T10:18:06;25.70;89.60
25214;DHT22;13160;51.834;4.706;2022-08-21T10:20:46;25.80;89.10
25214;DHT22;13160;51.834;4.706;2022-08-21T10:23:38;25.90;87.70
25214;DHT22;13160;51.834;4.706;2022-08-21T10:26:20;26.00;85.90
25214;DHT22;13160;51.834;4.706;2022-08-21T10:29:02;26.00;85.10
25214;DHT22;13160;51.834;4.706;2022-08-21T10:31:56;26.00;85.70
25214;DHT22;13160;51.834;4.706;2022-08-21T10:34:38;26.10;85.40
25214;DHT22;13160;51.834;4.706;2022-08-21T10:37:21;26.00;85.70
25214;DHT22;13160;51.834;4.706;2022-08-21T10:40:07;26.00;84.80
25214;DHT22;13160;51.834;4.706;2022-08-21T10:42:49;26.00;85.00
25214;DHT22;13160;51.834;4.706;2022-08-21T10:45:36;26.10;84.30
25214;DHT22;13160;51.834;4.706;2022-08-21T10:48:16;26.10;83.00
25214;DHT22;13160;51.834;4.706;2022-08-21T10:50:52;26.20;81.80
25214;DHT22;13160;51.834;4.706;2022-08-21T10:53:36;26.10;81.20
25214;DHT22;13160;51.834;4.706;2022-08-21T10:56:16;26.10;80.70
25214;DHT22;13160;51.834;4.706;2022-08-21T10:58:53;26.10;80.40
25214;DHT22;13160;51.834;4.706;2022-08-21T11:01:33;26.10;79.80
25214;DHT22;13160;51.834;4.706;2022-08-21T11:04:12;26.00;80.00
25214;DHT22;13160;51.834;4.706;2022-08-21T11:06:48;26.00;80.60
25214;DHT22;13160;51.834;4.706;2022-08-21T11:09:24;25.80;80.40
25214;DHT22;13160;51.834;4.706;2022-08-21T11:11:57;25.80;79.70
25214;DHT22;13160;51.834;4.706;2022-08-21T11:14:44;25.80;79.90
25214;DHT22;13160;51.834;4.706;2022-08-21T11:17:19;25.80;79.90
25214;DHT22;13160;51.834;4.706;2022-08-21T11:19:54;25.80;79.60
25214;DHT22;13160;51.834;4.706;2022-08-21T11:22:33;25.70;79.10
25214;DHT22;13160;51.834;4.706;2022-08-21T11:25:12;25.70;79.40
25214;DHT22;13160;51.834;4.706;2022-08-21T11:27:49;25.70;80.10
25214;DHT22;13160;51.834;4.706;2022-08-21T11:30:19;25.60;80.50
25214;DHT22;13160;51.834;4.706;2022-08-21T11:33:00;25.50;80.50
25214;DHT22;13160;51.834;4.706;2022-08-21T11:35:39;25.40;81.20
25214;DHT22;13160;51.834;4.706;2022-08-21T11:38:25;25.30;81.30
25214;DHT22;13160;51.834;4.706;2022-08-21T11:43:58;25.30;80.10
25214;DHT22;13160;51.834;4.706;2022-08-21T11:46:37;25.30;80.00
25214;DHT22;13160;51.834;4.706;2022-08-21T11:49:31;25.30;79.70
25214;DHT22;13160;51.834;4.706;2022-08-21T11:52:14;25.40;79.40
25214;DHT22;13160;51.834;4.706;2022-08-21T11:54:48;25.40;79.80
25214;DHT22;13160;51.834;4.706;2022-08-21T11:57:21;25.40;78.70
25214;DHT22;13160;51.834;4.706;2022-08-21T11:59:56;25.40;78.30
25214;DHT22;13160;51.834;4.706;2022-08-21T12:02:29;25.40;78.60
25214;DHT22;13160;51.834;4.706;2022-08-21T12:05:05;25.40;78.30
25214;DHT22;13160;51.834;4.706;2022-08-21T12:07:37;25.50;78.80
25214;DHT22;13160;51.834;4.706;2022-08-21T12:10:10;25.70;78.80
25214;DHT22;13160;51.834;4.706;2022-08-21T12:12:43;25.90;77.80
25214;DHT22;13160;51.834;4.706;2022-08-21T12:15:26;26.00;76.60
25214;DHT22;13160;51.834;4.706;2022-08-21T12:18:01;26.00;75.30
25214;DHT22;13160;51.834;4.706;2022-08-21T12:20:41;26.00;75.80
25214;DHT22;13160;51.834;4.706;2022-08-21T12:23:27;26.10;75.40
25214;DHT22;13160;51.834;4.706;2022-08-21T12:26:23;26.20;75.20
25214;DHT22;13160;51.834;4.706;2022-08-21T12:29:11;26.20;74.50
25214;DHT22;13160;51.834;4.706;2022-08-21T12:31:50;26.20;74.00
25214;DHT22;13160;51.834;4.706;2022-08-21T12:34:26;26.10;73.50
25214;DHT22;13160;51.834;4.706;2022-08-21T12:37:01;26.00;74.20
25214;DHT22;13160;51.834;4.706;2022-08-21T12:39:34;26.00;72.80
25214;DHT22;13160;51.834;4.706;2022-08-21T12:42:07;26.00;72.30
25214;DHT22;13160;51.834;4.706;2022-08-21T12:44:47;25.80;72.10
25214;DHT22;13160;51.834;4.706;2022-08-21T12:47:27;25.80;72.10
25214;DHT22;13160;51.834;4.706;2022-08-21T12:50:03;25.80;73.00
25214;DHT22;13160;51.834;4.706;2022-08-21T12:52:35;25.80;73.10
25214;DHT22;13160;51.834;4.706;2022-08-21T12:55:10;25.70;73.10
25214;DHT22;13160;51.834;4.706;2022-08-21T12:57:40;25.70;72.50
25214;DHT22;13160;51.834;4.706;2022-08-21T13:00:13;25.70;72.50
25214;DHT22;13160;51.834;4.706;2022-08-21T13:02:46;25.80;73.50
25214;DHT22;13160;51.834;4.706;2022-08-21T13:05:29;25.80;74.00
25214;DHT22;13160;51.834;4.706;2022-08-21T13:08:03;25.90;73.30
25214;DHT22;13160;51.834;4.706;2022-08-21T13:10:33;25.90;74.20
25214;DHT22;13160;51.834;4.706;2022-08-21T13:13:04;25.90;74.40
25214;DHT22;13160;51.834;4.706;2022-08-21T13:15:41;26.00;74.20
25214;DHT22;13160;51.834;4.706;2022-08-21T13:18:20;26.00;73.80
25214;DHT22;13160;51.834;4.706;2022-08-21T13:20:50;26.10;73.20
25214;DHT22;13160;51.834;4.706;2022-08-21T13:23:24;26.10;72.80
25214;DHT22;13160;51.834;4.706;2022-08-21T13:25:54;26.30;72.70
25214;DHT22;13160;51.834;4.706;2022-08-21T13:28:25;26.30;71.60
25214;DHT22;13160;51.834;4.706;2022-08-21T13:31:07;26.40;71.40
25214;DHT22;13160;51.834;4.706;2022-08-21T13:33:39;26.50;71.40
25214;DHT22;13160;51.834;4.706;2022-08-21T13:36:10;26.30;71.40
25214;DHT22;13160;51.834;4.706;2022-08-21T13:38:44;26.20;72.50
25214;DHT22;13160;51.834;4.706;2022-08-21T13:41:21;26.20;72.20
25214;DHT22;13160;51.834;4.706;2022-08-21T13:43:58;26.10;72.40
25214;DHT22;13160;51.834;4.706;2022-08-21T13:46:32;26.00;72.40
25214;DHT22;13160;51.834;4.706;2022-08-21T13:49:05;26.00;72.80
25214;DHT22;13160;51.834;4.706;2022-08-21T13:51:46;25.90;73.40
25214;DHT22;13160;51.834;4.706;2022-08-21T13:54:23;25.80;73.60
25214;DHT22;13160;51.834;4.706;2022-08-21T13:56:54;25.80;74.40
25214;DHT22;13160;51.834;4.706;2022-08-21T13:59:25;25.80;73.80
25214;DHT22;13160;51.834;4.706;2022-08-21T14:01:58;25.80;74.00
25214;DHT22;13160;51.834;4.706;2022-08-21T14:04:33;25.70;74.00
25214;DHT22;13160;51.834;4.706;2022-08-21T14:07:17;25.70;73.50
25214;DHT22;13160;51.834;4.706;2022-08-21T14:09:47;25.70;73.50
25214;DHT22;13160;51.834;4.706;2022-08-21T14:12:25;25.70;74.20
25214;DHT22;13160;51.834;4.706;2022-08-21T14:14:56;25.70;74.40
25214;DHT22;13160;51.834;4.706;2022-08-21T14:17:29;25.70;74.60
25214;DHT22;13160;51.834;4.706;2022-08-21T14:20:00;25.80;74.30
25214;DHT22;13160;51.834;4.706;2022-08-21T14:22:32;25.70;73.70
25214;DHT22;13160;51.834;4.706;2022-08-21T14:25:07;25.70;73.40
25214;DHT22;13160;51.834;4.706;2022-08-21T14:27:43;25.60;74.00
25214;DHT22;13160;51.834;4.706;2022-08-21T14:30:28;25.60;73.90
25214;DHT22;13160;51.834;4.706;2022-08-21T14:35:46;25.60;73.90
25214;DHT22;13160;51.834;4.706;2022-08-21T14:38:16;25.70;74.00
25214;DHT22;13160;51.834;4.706;2022-08-21T14:40:48;25.70;74.20
25214;DHT22;13160;51.834;4.706;2022-08-21T14:43:20;25.70;73.90
25214;DHT22;13160;51.834;4.706;2022-08-21T14:45:53;25.70;74.00
25214;DHT22;13160;51.834;4.706;2022-08-21T14:48:30;25.80;73.70
25214;DHT22;13160;51.834;4.706;2022-08-21T14:51:06;25.90;73.40
25214;DHT22;13160;51.834;4.706;2022-08-21T14:53:36;25.80;73.50
25214;DHT22;13160;51.834;4.706;2022-08-21T14:56:05;25.90;72.70
25214;DHT22;13160;51.834;4.706;2022-08-21T14:58:36;26.00;72.90
25214;DHT22;13160;51.834;4.706;2022-08-21T15:01:14;26.00;72.00
25214;DHT22;13160;51.834;4.706;2022-08-21T15:03:49;26.10;71.30
25214;DHT22;13160;51.834;4.706;2022-08-21T15:06:18;26.00;71.20
25214;DHT22;13160;51.834;4.706;2022-08-21T15:08:50;25.90;71.50
25214;DHT22;13160;51.834;4.706;2022-08-21T15:11:20;25.90;72.40
25214;DHT22;13160;51.834;4.706;2022-08-21T15:14:13;25.90;71.30
25214;DHT22;13160;51.834;4.706;2022-08-21T15:16:47;25.90;71.60
25214;DHT22;13160;51.834;4.706;2022-08-21T15:19:29;25.90;71.90
25214;DHT22;13160;51.834;4.706;2022-08-21T15:22:01;25.90;70.90
25214;DHT22;13160;51.834;4.706;2022-08-21T15:24:30;25.90;70.40
25214;DHT22;13160;51.834;4.706;2022-08-21T15:27:02;25.90;70.00
25214;DHT22;13160;51.834;4.706;2022-08-21T15:29:31;25.90;69.50
25214;DHT22;13160;51.834;4.706;2022-08-21T15:32:02;25.90;68.70
25214;DHT22;13160;51.834;4.706;2022-08-21T15:34:45;25.80;69.30
25214;DHT22;13160;51.834;4.706;2022-08-21T15:37:13;25.80;68.80
25214;DHT22;13160;51.834;4.706;2022-08-21T15:39:42;25.70;69.10
25214;DHT22;13160;51.834;4.706;2022-08-21T15:42:19;25.70;69.00
25214;DHT22;13160;51.834;4.706;2022-08-21T15:44:48;25.70;69.50
25214;DHT22;13160;51.834;4.706;2022-08-21T15:47:18;25.70;69.90
25214;DHT22;13160;51.834;4.706;2022-08-21T15:49:50;25.60;68.60
25214;DHT22;13160;51.834;4.706;2022-08-21T15:52:21;25.60;68.80
25214;DHT22;13160;51.834;4.706;2022-08-21T15:54:50;25.60;68.90
25214;DHT22;13160;51.834;4.706;2022-08-21T15:57:21;25.50;68.50
25214;DHT22;13160;51.834;4.706;2022-08-21T15:59:55;25.50;68.70
25214;DHT22;13160;51.834;4.706;2022-08-21T16:02:27;25.50;68.80
25214;DHT22;13160;51.834;4.706;2022-08-21T16:04:59;25.50;69.10
25214;DHT22;13160;51.834;4.706;2022-08-21T16:07:27;25.50;69.60
25214;DHT22;13160;51.834;4.706;2022-08-21T16:09:56;25.40;70.10